Middleburg, Virginia
Current Conditions -  °F | °C
As of 4:35 PM on Friday 28 Nov 2014 (Local Time) from KJYO Reporting Station
Clear Clear  
Wind Chill: 29°   Ceiling: Unl
Heat Index: 34°   Visibility: 10mi
Dew Point: 23°   Wind: 6mph
Humidity: 65%   Direction: 320°NW
Pressure: 30.28"   Gusts: NA
Location:  38.97°N, 77.74°W
Report Text: KJYO 282135Z AUTO 32005KT 10SM CLR 01/M05 A3028 RMK AO2
Loading
Personal Weather Stations






























Interactive Weather Map New forecast layout! Learn more

10-Day Weather Forecast

Advertisements
Track Severe Weather on mobile